Terminal Aerodrome Forecast
Issued by NWS Knoxville/Tri Cities, TN

Home | Current Version | Previous Version | Text Only | Print | Product List | Glossary On
Versions: 1 2 3 4 5 6 7 8 9 10 11 12 13 14 15 16 17 18 19 20 21 22
000
FTUS44 KMRX 010313 AAD
TAFTRI
TAF AMD
KTRI 010313Z 0103/0124 VRB03KT 4SM BR SCT013 OVC040
      TEMPO 0103/0106 1SM -TSRA BR BKN013CB
     FM010600 00000KT P6SM VCSH SCT040 BKN060
     FM011500 24008KT P6SM VCTS SCT040CB BKN050
     FM012100 24010KT P6SM SCT050 BKN080=

USA.gov is the U.S. government's official web portal to all federal, state and local government web resources and services.